John M Carras — SVBK5 — position and weather

sailwx.info

Track history (hours):
 
Tides and Currents Weather Stations Pressure Air Temp Water Temp Dewpoint Dewpoint Depression Visibility Wind Speed Wind Dir Waves Ship Positions

John M Carras

Last reported at 2017-Jan-18 19:32 UTC. Time now 2017-Jan-18 20:05 UTC.
Position N 50°24' E 000°25'.

Length 229 m; draft 12.5 m.

Type: Ship. MMSI: 241150000.

Date/timePositionNaut miles runAvg speedWind from/ knotsBaromVisibWave heightAir tempDewpointWater temp
2017-Jan-18 19:32N 50°24' E 000°25'1010.7
2017-Jan-18 18:34N 50°21' E 000°09'1110.8
2017-Jan-18 17:33N 50°18' W 000°07'2211.0
2017-Jan-18 15:33N 50°13' W 000°40'1211.9
2017-Jan-18 14:33N 50°09' W 000°58'1313.1
2017-Jan-18 13:33N 50°06' W 001°18'1414.0
2017-Jan-18 12:33N 50°02' W 001°39'1514.7
2017-Jan-18 11:33N 49°58' W 002°01'3013.6
2017-Jan-18 09:22N 49°50' W 002°45'1112.9
2017-Jan-18 08:32N 49°46' W 003°01'1312.7
2017-Jan-18 07:33N 49°40' W 003°18'1312.5
2017-Jan-18 06:31N 49°34' W 003°35'1312.3
2017-Jan-18 05:27N 49°28' W 003°53'1112.0
2017-Jan-18 04:32N 49°23' W 004°08'1111.7
2017-Jan-18 03:33N 49°18' W 004°24'1211.3
2017-Jan-18 02:31N 49°13' W 004°40'2211.0
2017-Jan-18 00:33N 49°02' W 005°08'9 9.3
2017-Jan-17 23:33N 48°56' W 005°20'6 5.9
2017-Jan-17 22:31N 48°52' W 005°27'1111.6
2017-Jan-17 21:33N 48°45' W 005°40'  
2017-Jan-10 00:31N 13°31' W 018°22'  
Track history (hours):
 
Tides and Currents Weather Stations Pressure Air Temp Water Temp Dewpoint Dewpoint Depression Visibility Wind Speed Wind Dir Waves Ship Positions

John M Carras

Last reported at 2017-Jan-18 19:32 UTC. Time now 2017-Jan-18 20:05 UTC.
Position N 50°24' E 000°25'.

Length 229 m; draft 12.5 m.

Type: Ship. MMSI: 241150000.

Date/timePositionNaut miles runAvg speedWind from/ knotsBaromVisibWave heightAir tempDewpointWater temp
2017-Jan-18 19:32N 50°24' E 000°25'1010.7
2017-Jan-18 18:34N 50°21' E 000°09'1110.8
2017-Jan-18 17:33N 50°18' W 000°07'2211.0
2017-Jan-18 15:33N 50°13' W 000°40'1211.9
2017-Jan-18 14:33N 50°09' W 000°58'1313.1
2017-Jan-18 13:33N 50°06' W 001°18'1414.0
2017-Jan-18 12:33N 50°02' W 001°39'1514.7
2017-Jan-18 11:33N 49°58' W 002°01'3013.6
2017-Jan-18 09:22N 49°50' W 002°45'1112.9
2017-Jan-18 08:32N 49°46' W 003°01'1312.7
2017-Jan-18 07:33N 49°40' W 003°18'1312.5
2017-Jan-18 06:31N 49°34' W 003°35'1312.3
2017-Jan-18 05:27N 49°28' W 003°53'1112.0
2017-Jan-18 04:32N 49°23' W 004°08'1111.7
2017-Jan-18 03:33N 49°18' W 004°24'1211.3
2017-Jan-18 02:31N 49°13' W 004°40'2211.0
2017-Jan-18 00:33N 49°02' W 005°08'9 9.3
2017-Jan-17 23:33N 48°56' W 005°20'6 5.9
2017-Jan-17 22:31N 48°52' W 005°27'1111.6
2017-Jan-17 21:33N 48°45' W 005°40'  
2017-Jan-10 00:31N 13°31' W 018°22'  

Dump ship's entire track history